createdAt,value
2023-07-11T00:00:40.360Z,17.44
2023-07-11T00:03:07.148Z,17.48
2023-07-11T00:05:33.782Z,17.52
2023-07-11T00:08:00.350Z,17.55
2023-07-11T00:10:27.087Z,17.57
2023-07-11T00:12:53.969Z,17.60
2023-07-11T00:15:20.544Z,17.66
2023-07-11T00:17:48.893Z,17.70
2023-07-11T00:20:16.632Z,17.73
2023-07-11T00:22:44.946Z,17.78
2023-07-11T00:25:13.463Z,17.85
2023-07-11T00:27:41.042Z,17.90
2023-07-11T00:30:08.742Z,17.96
2023-07-11T00:32:35.965Z,18.03
2023-07-11T00:35:02.657Z,18.10
2023-07-11T00:37:29.191Z,18.18
2023-07-11T00:39:55.816Z,18.25
2023-07-11T00:42:22.462Z,18.34
2023-07-11T00:44:49.902Z,18.44
2023-07-11T00:47:16.619Z,18.51
2023-07-11T00:49:43.300Z,18.57
2023-07-11T00:52:10.562Z,18.63
2023-07-11T00:54:38.680Z,18.64
2023-07-11T00:57:10.505Z,18.61
2023-07-11T00:59:37.339Z,18.57
2023-07-11T01:02:09.694Z,18.55
2023-07-11T01:04:38.636Z,18.54
2023-07-11T01:07:08.755Z,18.51
2023-07-11T01:09:35.786Z,18.49
2023-07-11T01:12:06.355Z,18.47
2023-07-11T01:14:32.901Z,18.45
2023-07-11T01:16:59.715Z,18.44
2023-07-11T01:19:26.878Z,18.43
2023-07-11T01:21:53.924Z,18.42
2023-07-11T01:24:20.447Z,18.43
2023-07-11T01:26:46.957Z,18.47
2023-07-11T01:29:13.966Z,18.46
2023-07-11T01:31:40.542Z,18.43
2023-07-11T01:34:08.592Z,18.39
2023-07-11T01:36:35.789Z,18.36
2023-07-11T01:39:02.393Z,18.33
2023-07-11T01:41:29.028Z,18.28
2023-07-11T01:43:56.171Z,18.21
2023-07-11T01:46:22.877Z,18.15
2023-07-11T01:48:49.718Z,18.10
2023-07-11T01:51:17.117Z,18.09
2023-07-11T01:53:43.881Z,18.09
2023-07-11T01:56:10.550Z,18.08
2023-07-11T01:58:37.029Z,18.12
2023-07-11T02:01:03.612Z,18.13
2023-07-11T02:03:30.896Z,18.12
2023-07-11T02:05:58.234Z,18.10
2023-07-11T02:08:25.009Z,18.09
2023-07-11T02:10:51.654Z,18.06
2023-07-11T02:13:18.277Z,18.03
2023-07-11T02:15:44.800Z,18.00
2023-07-11T02:18:11.831Z,17.96
2023-07-11T02:20:43.620Z,17.94
2023-07-11T02:23:11.965Z,17.92
2023-07-11T02:25:40.701Z,17.90
2023-07-11T02:28:08.334Z,17.87
2023-07-11T02:30:35.541Z,17.84
2023-07-11T02:33:02.399Z,17.79
2023-07-11T02:35:29.188Z,17.76
2023-07-11T02:37:56.328Z,17.73
2023-07-11T02:40:23.027Z,17.72
2023-07-11T02:42:49.516Z,17.72
2023-07-11T02:45:16.533Z,17.73
2023-07-11T02:47:43.159Z,17.75
2023-07-11T02:50:10.077Z,17.75
2023-07-11T02:52:37.771Z,17.73
2023-07-11T02:55:05.445Z,17.71
2023-07-11T02:57:32.280Z,17.72
2023-07-11T02:59:58.958Z,17.76
2023-07-11T03:02:25.566Z,17.80
2023-07-11T03:04:52.365Z,17.85
2023-07-11T03:07:19.356Z,17.88
2023-07-11T03:09:45.846Z,17.93
2023-07-11T03:12:12.365Z,17.97
2023-07-11T03:14:38.932Z,18.01
2023-07-11T03:17:05.597Z,18.11
2023-07-11T03:19:32.609Z,18.21
2023-07-11T03:21:59.464Z,18.52
2023-07-11T03:24:25.966Z,19.03
2023-07-11T03:26:52.736Z,19.48
2023-07-11T03:29:19.412Z,19.77
2023-07-11T03:31:45.944Z,20.00
2023-07-11T03:34:12.574Z,20.21
2023-07-11T03:36:39.839Z,20.36
2023-07-11T03:39:06.552Z,20.48
2023-07-11T03:41:33.484Z,20.59
2023-07-11T03:44:00.992Z,20.69
2023-07-11T03:46:28.141Z,20.76
2023-07-11T03:48:55.108Z,20.79
2023-07-11T03:51:21.686Z,20.83
2023-07-11T03:53:48.293Z,20.84
2023-07-11T03:56:14.774Z,20.85
2023-07-11T03:58:41.420Z,20.85
2023-07-11T04:01:07.927Z,20.84
2023-07-11T04:03:35.026Z,20.85
2023-07-11T04:06:01.930Z,20.88
2023-07-11T04:08:28.466Z,20.91
2023-07-11T04:10:56.967Z,20.93
2023-07-11T04:13:23.822Z,20.98
2023-07-11T04:15:50.485Z,21.01
2023-07-11T04:18:17.109Z,21.10
2023-07-11T04:20:44.175Z,21.25
2023-07-11T04:23:11.231Z,21.38
2023-07-11T04:25:37.757Z,21.61
2023-07-11T04:28:06.198Z,21.81
2023-07-11T04:30:33.762Z,21.89
2023-07-11T04:33:00.999Z,21.99
2023-07-11T04:35:27.635Z,22.12
2023-07-11T04:37:54.186Z,22.11
2023-07-11T04:40:20.699Z,22.06
2023-07-11T04:42:47.564Z,21.98
2023-07-11T04:45:14.189Z,21.91
2023-07-11T04:47:40.696Z,21.87
2023-07-11T04:50:08.021Z,21.85
2023-07-11T04:52:34.565Z,21.96
2023-07-11T04:55:01.266Z,21.94
2023-07-11T04:57:27.853Z,21.90
2023-07-11T04:59:54.334Z,21.80
2023-07-11T05:02:20.860Z,21.71
2023-07-11T05:04:47.508Z,21.62
2023-07-11T05:07:14.968Z,21.51
2023-07-11T05:09:57.197Z,21.42
2023-07-11T05:12:25.857Z,21.37
2023-07-11T05:14:52.534Z,21.31
2023-07-11T05:17:19.283Z,21.29
2023-07-11T05:19:46.044Z,21.31
2023-07-11T05:22:12.878Z,21.31
2023-07-11T05:24:39.374Z,21.40
2023-07-11T05:27:06.071Z,21.61
2023-07-11T05:29:32.543Z,21.67
2023-07-11T05:31:59.136Z,21.68
2023-07-11T05:34:26.168Z,21.82
2023-07-11T05:36:52.816Z,21.97
2023-07-11T05:39:19.668Z,22.16
2023-07-11T05:41:51.636Z,22.24
2023-07-11T05:44:18.141Z,22.23
2023-07-11T05:46:47.834Z,22.22
2023-07-11T05:49:15.954Z,22.28
2023-07-11T05:51:42.615Z,22.25
2023-07-11T05:54:09.449Z,22.26
2023-07-11T05:56:35.965Z,22.23
2023-07-11T05:59:02.494Z,22.23
2023-07-11T06:01:31.043Z,22.24
2023-07-11T06:04:23.865Z,22.25
2023-07-11T06:06:50.449Z,22.24
2023-07-11T06:09:19.614Z,22.28
2023-07-11T06:11:48.857Z,22.39
2023-07-11T06:14:16.975Z,22.45
2023-07-11T06:16:47.183Z,22.45
2023-07-11T06:19:17.080Z,22.43
2023-07-11T06:21:43.623Z,22.43
2023-07-11T06:24:10.385Z,22.51
2023-07-11T06:26:37.133Z,22.71
2023-07-11T06:29:03.822Z,22.69
2023-07-11T06:31:30.365Z,22.71
2023-07-11T06:33:57.461Z,22.91
2023-07-11T06:36:24.307Z,23.00
2023-07-11T06:38:51.060Z,22.97
2023-07-11T06:41:17.617Z,23.02
2023-07-11T06:43:44.134Z,23.12
2023-07-11T06:46:10.800Z,23.14
2023-07-11T06:48:37.472Z,23.14
2023-07-11T06:51:05.376Z,23.18
2023-07-11T06:53:34.651Z,23.19
2023-07-11T06:56:02.626Z,23.05
2023-07-11T06:58:29.719Z,22.94
2023-07-11T07:00:59.671Z,22.86
2023-07-11T07:03:26.341Z,22.82
2023-07-11T07:05:56.271Z,22.85
2023-07-11T07:08:24.751Z,22.90
2023-07-11T07:10:52.067Z,22.98
2023-07-11T07:13:21.435Z,23.19
2023-07-11T07:15:50.224Z,23.51
2023-07-11T07:18:17.303Z,23.56
2023-07-11T07:20:56.221Z,23.56
2023-07-11T07:23:25.468Z,23.72
2023-07-11T07:25:54.693Z,24.01
2023-07-11T07:28:21.874Z,24.16
2023-07-11T07:30:50.137Z,24.25
2023-07-11T07:33:16.966Z,24.68
2023-07-11T07:35:44.123Z,25.12
2023-07-11T07:38:11.309Z,25.40
2023-07-11T07:40:38.780Z,25.30
2023-07-11T07:43:05.636Z,25.51
2023-07-11T07:45:32.312Z,25.60
2023-07-11T07:47:58.912Z,25.32
2023-07-11T07:50:25.633Z,25.11
2023-07-11T07:52:52.182Z,25.10
2023-07-11T07:55:18.823Z,25.14
2023-07-11T07:57:46.729Z,25.40
2023-07-11T08:00:13.943Z,25.46
2023-07-11T08:02:40.503Z,25.54
2023-07-11T08:05:07.706Z,25.54
2023-07-11T08:07:34.931Z,25.54
2023-07-11T08:10:01.544Z,25.64
2023-07-11T08:12:28.059Z,25.75
2023-07-11T08:14:54.557Z,25.80
2023-07-11T08:17:21.212Z,25.85
2023-07-11T08:19:48.518Z,25.98
2023-07-11T08:22:15.351Z,26.27
2023-07-11T08:24:41.923Z,26.25
2023-07-11T08:27:08.413Z,26.30
2023-07-11T08:29:35.135Z,26.45
2023-07-11T08:32:01.602Z,26.59
2023-07-11T08:34:28.259Z,26.71
2023-07-11T08:36:55.305Z,26.83
2023-07-11T08:39:22.397Z,26.81
2023-07-11T08:41:52.714Z,26.82
2023-07-11T08:44:28.300Z,26.92
2023-07-11T08:47:22.785Z,27.01
2023-07-11T08:49:54.006Z,27.27
2023-07-11T08:52:22.752Z,27.27
2023-07-11T08:55:05.956Z,26.92
2023-07-11T08:57:36.938Z,26.71
2023-07-11T09:00:13.066Z,26.60
2023-07-11T09:02:51.326Z,26.48
2023-07-11T09:05:53.309Z,26.51
2023-07-11T09:08:21.706Z,26.83
2023-07-11T09:11:03.484Z,26.85
2023-07-11T09:14:01.246Z,26.74
2023-07-11T09:16:27.812Z,27.00
2023-07-11T09:19:06.845Z,26.88
2023-07-11T09:21:50.350Z,26.76
2023-07-11T09:25:00.458Z,26.78
2023-07-11T09:27:35.731Z,26.81
2023-07-11T09:30:34.387Z,26.96
2023-07-11T09:33:19.140Z,26.96
2023-07-11T09:35:46.850Z,26.83
2023-07-11T09:38:19.284Z,27.01
2023-07-11T09:40:52.617Z,27.18
2023-07-11T09:43:19.218Z,27.19
2023-07-11T09:45:45.994Z,27.05
2023-07-11T09:48:34.313Z,26.71
2023-07-11T09:53:30.820Z,26.43
2023-07-11T09:56:12.345Z,26.48
2023-07-11T09:58:41.290Z,26.67
2023-07-11T10:01:17.597Z,26.87
2023-07-11T10:03:46.916Z,26.82
2023-07-11T10:06:32.742Z,26.40
2023-07-11T10:09:23.665Z,25.79
2023-07-11T10:11:54.614Z,25.81
2023-07-11T10:14:29.124Z,25.65
2023-07-11T10:16:57.405Z,25.31
2023-07-11T10:19:24.917Z,25.42
2023-07-11T10:21:53.093Z,25.71
2023-07-11T10:24:25.425Z,26.03
2023-07-11T10:27:05.192Z,26.16
2023-07-11T10:29:40.477Z,26.04
2023-07-11T10:32:14.580Z,26.00
2023-07-11T10:34:45.452Z,26.27
2023-07-11T10:37:46.621Z,26.38
2023-07-11T10:40:25.535Z,26.43
2023-07-11T10:43:25.609Z,26.33
2023-07-11T10:46:10.985Z,26.17
2023-07-11T10:48:46.759Z,26.38
2023-07-11T10:51:21.301Z,26.65
2023-07-11T10:54:12.575Z,26.25
2023-07-11T10:56:45.799Z,25.87
2023-07-11T10:59:14.427Z,26.05
2023-07-11T11:01:59.595Z,26.19
2023-07-11T11:04:51.035Z,26.39
2023-07-11T11:07:17.678Z,26.77
2023-07-11T11:10:05.148Z,27.12
2023-07-11T11:12:39.642Z,27.27
2023-07-11T11:15:21.582Z,27.54
2023-07-11T11:18:24.622Z,27.47
2023-07-11T11:21:21.136Z,27.23
2023-07-11T11:24:18.150Z,27.39
2023-07-11T11:27:24.373Z,27.72
2023-07-11T11:30:15.080Z,27.48
2023-07-11T11:32:54.257Z,27.24
2023-07-11T11:35:47.864Z,27.45
2023-07-11T11:38:26.304Z,28.05
2023-07-11T11:51:33.899Z,28.04
2023-07-11T11:54:26.928Z,27.78
2023-07-11T11:57:00.249Z,27.95
2023-07-11T11:59:28.930Z,28.31
2023-07-11T12:01:55.444Z,28.39
2023-07-11T12:04:36.776Z,28.21
2023-07-11T12:07:03.547Z,28.00
2023-07-11T12:09:45.840Z,27.93
2023-07-11T12:12:19.469Z,28.10
2023-07-11T12:14:59.733Z,27.99
2023-07-11T12:17:32.546Z,27.94
2023-07-11T12:20:02.693Z,28.10
2023-07-11T12:22:38.396Z,28.12
2023-07-11T12:27:17.686Z,28.09
2023-07-11T12:29:54.664Z,28.02
2023-07-11T12:32:33.723Z,27.82
2023-07-11T12:35:06.584Z,27.51
